Time;durP1;ratioP1;P1;durP2;ratioP2;P2;SDS_P1;SDS_P2;PMS_P1;PMS_P2;Temp;Humidity;BMP_temperature;BMP_pressure;BME280_temperature;BME280_humidity;BME280_pressure;Samples;Min_cycle;Max_cycle;Signal;HPM_P1;HPM_P2
2022/04/28 00:03:20;;;;;;;3.03;2.70;;;;;;;;;;8179151;28;20035;-69
2022/04/28 00:07:20;;;;;;;2.70;2.50;;;;;;;;;;8175216;28;20090;-69
2022/04/28 00:11:20;;;;;;;3.08;2.40;;;;;;;;;;8177403;28;20053;-70
2022/04/28 00:15:21;;;;;;;3.42;2.75;;;;;;;;;;8176310;28;20050;-70
2022/04/28 00:19:21;;;;;;;3.78;2.90;;;;;;;;;;8178612;28;20107;-69
2022/04/28 00:23:21;;;;;;;2.40;2.20;;;;;;;;;;8175042;28;20817;-69
2022/04/28 00:27:21;;;;;;;3.03;2.72;;;;;;;;;;8178643;28;20835;-69
2022/04/28 00:31:22;;;;;;;3.20;2.67;;;;;;;;;;8178179;28;20028;-69
2022/04/28 00:35:22;;;;;;;3.50;2.53;;;;;;;;;;8176678;28;20708;-69
2022/04/28 00:39:23;;;;;;;2.80;2.53;;;;;;;;;;8176036;28;20898;-69
2022/04/28 00:43:26;;;;;;;2.80;2.60;;;;;;;;;;8175502;28;20521;-69
2022/04/28 00:50:38;;;;;;;3.10;2.80;;;;;;;;;;8174691;28;20043;-69
2022/04/28 00:51:47;;;;;;;2.70;2.50;;;;;;;;;;8175884;28;20043;-70
2022/04/28 00:55:48;;;;;;;5.43;2.95;;;;;;;;;;8176055;28;20769;-69
2022/04/28 00:59:49;;;;;;;4.68;3.00;;;;;;;;;;8176973;28;20126;-69
2022/04/28 01:03:49;;;;;;;2.90;2.70;;;;;;;;;;8176505;28;20039;-69
2022/04/28 01:07:50;;;;;;;3.47;2.85;;;;;;;;;;8177668;28;20540;-69
2022/04/28 01:11:50;;;;;;;3.30;3.00;;;;;;;;;;8174596;28;20035;-68
2022/04/28 01:15:50;;;;;;;5.72;2.80;;;;;;;;;;8176690;28;20039;-69
2022/04/28 01:19:50;;;;;;;2.70;2.50;;;;;;;;;;8175658;28;20031;-68
2022/04/28 01:23:51;;;;;;;2.85;2.55;;;;;;;;;;8173805;28;20026;-68
2022/04/28 01:27:51;;;;;;;3.15;2.85;;;;;;;;;;8176551;28;20038;-68
2022/04/28 01:31:51;;;;;;;4.20;3.20;;;;;;;;;;8173265;28;20981;-68
2022/04/28 01:35:52;;;;;;;3.60;3.30;;;;;;;;;;8178706;28;20039;-69
2022/04/28 01:39:52;;;;;;;3.55;3.13;;;;;;;;;;8178283;28;20035;-69
2022/04/28 01:43:53;;;;;;;6.47;3.33;;;;;;;;;;8169375;28;20031;-69
2022/04/28 01:47:53;;;;;;;5.43;3.42;;;;;;;;;;8171606;28;20535;-68
2022/04/28 01:56:12;;;;;;;5.90;3.42;;;;;;;;;;8175409;28;20159;-70
2022/04/28 02:00:12;;;;;;;5.43;3.47;;;;;;;;;;8172284;28;20027;-69
2022/04/28 02:04:12;;;;;;;4.28;3.85;;;;;;;;;;8174467;28;20126;-69
2022/04/28 02:08:13;;;;;;;4.45;3.72;;;;;;;;;;8175230;28;20050;-69
2022/04/28 02:12:13;;;;;;;5.93;4.00;;;;;;;;;;8174203;28;20069;-69
2022/04/28 02:16:13;;;;;;;5.22;4.40;;;;;;;;;;8173996;28;20858;-69
2022/04/28 02:20:14;;;;;;;4.05;3.65;;;;;;;;;;8173513;28;20502;-69
2022/04/28 02:24:14;;;;;;;3.88;3.53;;;;;;;;;;8188483;28;20074;-69
2022/04/28 02:28:14;;;;;;;6.00;4.57;;;;;;;;;;8174100;28;20019;-69
2022/04/28 02:32:14;;;;;;;5.05;4.07;;;;;;;;;;8175153;28;20039;-69
2022/04/28 02:36:15;;;;;;;5.63;4.20;;;;;;;;;;8174486;28;20034;-69
2022/04/28 02:40:16;;;;;;;4.40;4.00;;;;;;;;;;8175375;28;21039;-69
2022/04/28 02:44:16;;;;;;;6.80;5.00;;;;;;;;;;8174657;28;20019;-69
2022/04/28 02:48:16;;;;;;;5.07;4.47;;;;;;;;;;8171961;28;20040;-70
2022/04/28 02:52:17;;;;;;;5.87;4.20;;;;;;;;;;8172915;28;20481;-70
2022/04/28 02:56:17;;;;;;;6.35;4.43;;;;;;;;;;8177231;28;20298;-70
2022/04/28 03:00:17;;;;;;;7.20;4.82;;;;;;;;;;8179512;28;20029;-69
2022/04/28 03:04:17;;;;;;;6.72;5.78;;;;;;;;;;8180995;28;20102;-69
2022/04/28 03:12:37;;;;;;;6.82;5.60;;;;;;;;;;8183029;28;20070;-70
2022/04/28 03:16:38;;;;;;;8.30;5.57;;;;;;;;;;8178789;28;20047;-70
2022/04/28 03:20:38;;;;;;;6.03;5.22;;;;;;;;;;8179807;28;20055;-70
2022/04/28 03:24:40;;;;;;;5.78;5.18;;;;;;;;;;8181072;28;20031;-70
2022/04/28 03:28:40;;;;;;;7.88;5.95;;;;;;;;;;8180009;28;20106;-70
2022/04/28 03:32:42;;;;;;;7.90;5.65;;;;;;;;;;8182970;28;20042;-70
2022/04/28 03:36:51;;;;;;;7.60;5.55;;;;;;;;;;8179778;28;20035;-70
2022/04/28 03:40:51;;;;;;;8.20;5.65;;;;;;;;;;8179299;28;20102;-69
2022/04/28 03:44:51;;;;;;;8.40;5.78;;;;;;;;;;8179134;28;20030;-69
2022/04/28 03:48:52;;;;;;;7.05;6.07;;;;;;;;;;8178316;28;20055;-69
2022/04/28 03:52:52;;;;;;;8.20;6.28;;;;;;;;;;8178960;28;20049;-69
2022/04/28 03:56:52;;;;;;;8.63;6.18;;;;;;;;;;8178934;28;20168;-69
2022/04/28 04:00:53;;;;;;;7.97;5.87;;;;;;;;;;8175849;28;20039;-70
2022/04/28 04:04:53;;;;;;;9.30;6.47;;;;;;;;;;8180996;28;20283;-69
2022/04/28 04:08:53;;;;;;;10.35;7.85;;;;;;;;;;8183246;28;20682;-69
2022/04/28 04:12:53;;;;;;;7.65;6.85;;;;;;;;;;8180092;28;20035;-71
2022/04/28 04:16:53;;;;;;;9.15;7.20;;;;;;;;;;8177887;28;20044;-70
2022/04/28 04:20:53;;;;;;;9.25;7.40;;;;;;;;;;8176729;28;20038;-70
2022/04/28 04:24:54;;;;;;;9.57;7.78;;;;;;;;;;8177141;28;20110;-70
2022/04/28 04:28:54;;;;;;;12.18;7.32;;;;;;;;;;8176884;28;20126;-70
2022/04/28 04:32:54;;;;;;;13.17;8.20;;;;;;;;;;8177204;28;20085;-69
2022/04/28 04:36:54;;;;;;;9.97;8.30;;;;;;;;;;8181905;28;20378;-69
2022/04/28 04:40:55;;;;;;;8.20;7.00;;;;;;;;;;8182035;28;20369;-70
2022/04/28 04:44:56;;;;;;;11.68;7.80;;;;;;;;;;8181087;28;20282;-69
2022/04/28 04:48:56;;;;;;;9.55;7.53;;;;;;;;;;8188368;28;22716;-69
2022/04/28 04:52:56;;;;;;;10.98;8.32;;;;;;;;;;8176577;28;20634;-70
2022/04/28 04:56:56;;;;;;;10.68;7.55;;;;;;;;;;8178968;28;20035;-69
2022/04/28 05:01:04;;;;;;;10.55;8.50;;;;;;;;;;8181000;28;20389;-70
2022/04/28 05:05:04;;;;;;;11.70;8.55;;;;;;;;;;8181804;28;20023;-70
2022/04/28 05:09:05;;;;;;;11.35;9.25;;;;;;;;;;8183338;28;20051;-71
2022/04/28 05:13:06;;;;;;;11.73;8.45;;;;;;;;;;8181909;28;20038;-71
2022/04/28 05:17:06;;;;;;;13.05;7.80;;;;;;;;;;8200704;28;20047;-71
2022/04/28 05:21:06;;;;;;;13.90;8.07;;;;;;;;;;8183249;28;20087;-71
2022/04/28 05:25:07;;;;;;;12.32;7.82;;;;;;;;;;8183140;28;20031;-71
2022/04/28 05:29:07;;;;;;;12.93;8.43;;;;;;;;;;8184147;28;20042;-71
2022/04/28 05:33:07;;;;;;;11.05;7.80;;;;;;;;;;8185160;28;20100;-71
2022/04/28 05:37:07;;;;;;;11.13;8.00;;;;;;;;;;8184557;28;20102;-71
2022/04/28 05:41:08;;;;;;;11.40;8.02;;;;;;;;;;8186782;28;20110;-71
2022/04/28 05:46:08;;;;;;;10.27;8.00;;;;;;;;;;8184049;28;20102;-71
2022/04/28 05:49:38;;;;;;;12.73;8.38;;;;;;;;;;8191308;28;20086;-71
2022/04/28 05:53:39;;;;;;;11.68;8.45;;;;;;;;;;8191290;28;20023;-71
2022/04/28 05:57:39;;;;;;;9.93;8.35;;;;;;;;;;8183275;28;20381;-70
2022/04/28 06:01:40;;;;;;;10.57;7.90;;;;;;;;;;8185289;28;20090;-71
2022/04/28 06:05:40;;;;;;;9.88;7.97;;;;;;;;;;8184701;28;20037;-71
2022/04/28 06:09:41;;;;;;;8.85;7.93;;;;;;;;;;8182990;28;20034;-71
2022/04/28 06:13:41;;;;;;;13.18;7.45;;;;;;;;;;8183881;28;20959;-71
2022/04/28 06:17:41;;;;;;;11.50;7.70;;;;;;;;;;8182028;28;20027;-71
2022/04/28 06:21:41;;;;;;;12.70;7.45;;;;;;;;;;8179015;28;20050;-71
2022/04/28 06:25:42;;;;;;;10.50;7.15;;;;;;;;;;8182730;28;20019;-71
2022/04/28 06:29:42;;;;;;;9.98;6.50;;;;;;;;;;8179682;28;20711;-70
2022/04/28 06:33:42;;;;;;;6.87;6.17;;;;;;;;;;8188032;28;20090;-72
2022/04/28 06:37:42;;;;;;;8.05;6.85;;;;;;;;;;8186874;28;20070;-70
2022/04/28 06:41:42;;;;;;;9.35;6.63;;;;;;;;;;8187418;28;20070;-70
2022/04/28 06:46:11;;;;;;;8.43;6.22;;;;;;;;;;8189972;28;20039;-71
2022/04/28 06:50:03;;;;;;;10.25;6.63;;;;;;;;;;8188830;28;20028;-71
2022/04/28 06:54:03;;;;;;;8.20;5.80;;;;;;;;;;8186676;28;20039;-71
2022/04/28 06:58:03;;;;;;;7.85;6.00;;;;;;;;;;8189502;28;20300;-71
2022/04/28 07:02:04;;;;;;;9.43;6.53;;;;;;;;;;8187933;28;20130;-71
2022/04/28 07:06:04;;;;;;;7.13;6.07;;;;;;;;;;8186374;28;20026;-71
2022/04/28 07:10:05;;;;;;;7.22;6.38;;;;;;;;;;8186091;28;20027;-71
2022/04/28 07:14:05;;;;;;;9.07;5.65;;;;;;;;;;8183953;28;20141;-71
2022/04/28 07:18:05;;;;;;;7.47;5.72;;;;;;;;;;8186649;28;20846;-71
2022/04/28 07:22:06;;;;;;;6.28;5.65;;;;;;;;;;8185121;28;20094;-71
2022/04/28 07:26:06;;;;;;;6.72;5.75;;;;;;;;;;8188175;28;20027;-72
2022/04/28 07:30:06;;;;;;;5.40;4.90;;;;;;;;;;8183171;28;20024;-71
2022/04/28 07:34:07;;;;;;;8.48;6.40;;;;;;;;;;8203163;28;20254;-71
2022/04/28 07:38:08;;;;;;;8.52;5.38;;;;;;;;;;8189432;28;20035;-71
2022/04/28 07:42:08;;;;;;;5.32;4.82;;;;;;;;;;8189483;28;20026;-71
2022/04/28 07:46:08;;;;;;;4.97;4.45;;;;;;;;;;8188828;28;20079;-71
2022/04/28 07:50:08;;;;;;;10.23;4.80;;;;;;;;;;8189082;28;20019;-71
2022/04/28 07:54:09;;;;;;;9.13;5.05;;;;;;;;;;8191030;28;20870;-71
2022/04/28 07:58:09;;;;;;;5.25;4.63;;;;;;;;;;8186857;28;20073;-71
2022/04/28 08:02:11;;;;;;;5.53;4.90;;;;;;;;;;8178878;28;20138;-71
2022/04/28 08:06:13;;;;;;;4.80;4.28;;;;;;;;;;8186172;28;20038;-71
2022/04/28 08:10:13;;;;;;;7.50;4.40;;;;;;;;;;8185494;28;20993;-71
2022/04/28 08:14:13;;;;;;;5.60;4.50;;;;;;;;;;8186101;28;20019;-71
2022/04/28 08:18:13;;;;;;;6.55;4.30;;;;;;;;;;8185681;28;20464;-71
2022/04/28 08:22:13;;;;;;;4.53;4.13;;;;;;;;;;8187460;28;20027;-71
2022/04/28 08:26:14;;;;;;;5.55;4.03;;;;;;;;;;8187918;28;20027;-71
2022/04/28 08:30:14;;;;;;;4.60;4.20;;;;;;;;;;8190128;28;20019;-71
2022/04/28 08:34:17;;;;;;;5.07;3.88;;;;;;;;;;8187517;28;20067;-71
2022/04/28 08:38:17;;;;;;;4.22;3.90;;;;;;;;;;8187470;28;20038;-71
2022/04/28 08:42:18;;;;;;;4.00;3.53;;;;;;;;;;8189287;28;20022;-71
2022/04/28 08:50:38;;;;;;;5.72;3.80;;;;;;;;;;8191832;28;20034;-72
2022/04/28 08:54:39;;;;;;;4.50;3.90;;;;;;;;;;8192977;28;20105;-72
2022/04/28 08:58:39;;;;;;;5.47;3.80;;;;;;;;;;8186844;28;20836;-72
2022/04/28 09:02:39;;;;;;;6.15;3.70;;;;;;;;;;8192665;28;20037;-72
2022/04/28 09:06:41;;;;;;;4.20;3.80;;;;;;;;;;8190413;28;20034;-72
2022/04/28 09:10:41;;;;;;;4.85;4.00;;;;;;;;;;8172793;28;20035;-73
2022/04/28 09:14:43;;;;;;;4.20;3.83;;;;;;;;;;8165545;28;20822;-72
2022/04/28 09:18:43;;;;;;;8.27;4.40;;;;;;;;;;8166260;28;20578;-71
2022/04/28 09:22:43;;;;;;;3.90;3.50;;;;;;;;;;8180145;28;20033;-71
2022/04/28 09:26:43;;;;;;;4.03;3.60;;;;;;;;;;8180614;28;20031;-71
2022/04/28 09:30:45;;;;;;;3.90;3.45;;;;;;;;;;8178363;28;20031;-71
2022/04/28 09:34:47;;;;;;;4.30;3.90;;;;;;;;;;8180381;28;20038;-72
2022/04/28 09:38:53;;;;;;;11.07;4.37;;;;;;;;;;8177098;28;20027;-72
2022/04/28 09:42:54;;;;;;;6.25;4.20;;;;;;;;;;8178167;28;21071;-72
2022/04/28 09:46:54;;;;;;;3.95;3.20;;;;;;;;;;8193858;28;20599;-72
2022/04/28 09:50:59;;;;;;;3.78;3.40;;;;;;;;;;8179039;28;20039;-73
2022/04/28 09:55:01;;;;;;;4.07;3.38;;;;;;;;;;8176998;28;20062;-71
2022/04/28 09:59:04;;;;;;;4.20;3.72;;;;;;;;;;8175901;28;20090;-71
2022/04/28 10:03:07;;;;;;;4.10;3.70;;;;;;;;;;8174615;28;20031;-71
2022/04/28 10:07:07;;;;;;;;;;;;;;;;;;8174103;28;20039;-71
2022/04/28 10:11:09;;;;;;;4.32;3.95;;;;;;;;;;8173485;28;20566;-71
2022/04/28 10:15:11;;;;;;;4.63;3.63;;;;;;;;;;8170885;28;20062;-71
2022/04/28 10:19:17;;;;;;;5.63;3.10;;;;;;;;;;8181402;28;20046;-70
2022/04/28 10:32:22;;;;;;;4.20;3.70;;;;;;;;;;8170823;28;20314;-71
2022/04/28 10:36:20;;;;;;;6.82;4.15;;;;;;;;;;8179072;28;20077;-72
2022/04/28 10:40:21;;;;;;;3.42;3.13;;;;;;;;;;8176779;28;20024;-72
2022/04/28 10:44:28;;;;;;;5.38;3.15;;;;;;;;;;8175421;28;20123;-72
2022/04/28 10:48:41;;;;;;;4.47;3.53;;;;;;;;;;8174272;28;20039;-72
2022/04/28 10:52:42;;;;;;;6.88;3.28;;;;;;;;;;8192030;28;20613;-73
2022/04/28 10:56:42;;;;;;;3.45;3.10;;;;;;;;;;8176752;28;20152;-72
2022/04/28 11:00:50;;;;;;;3.78;2.80;;;;;;;;;;8175905;28;20063;-73
2022/04/28 11:04:55;;;;;;;3.65;3.10;;;;;;;;;;8182384;28;20453;-72
2022/04/28 11:08:57;;;;;;;3.53;3.22;;;;;;;;;;8176033;28;20113;-72
2022/04/28 11:13:07;;;;;;;4.72;3.95;;;;;;;;;;8175923;28;20057;-73
2022/04/28 11:17:07;;;;;;;4.15;3.75;;;;;;;;;;8182375;28;20035;-72
2022/04/28 11:21:07;;;;;;;3.80;3.03;;;;;;;;;;8183468;28;20085;-73
2022/04/28 11:25:12;;;;;;;2.92;2.63;;;;;;;;;;8186244;28;20023;-72
2022/04/28 11:29:13;;;;;;;2.92;2.50;;;;;;;;;;8183063;28;20041;-73
2022/04/28 11:33:13;;;;;;;4.53;2.90;;;;;;;;;;8198370;28;20580;-72
2022/04/28 11:37:14;;;;;;;3.45;3.15;;;;;;;;;;8181978;28;20478;-72
2022/04/28 11:41:14;;;;;;;2.50;2.30;;;;;;;;;;8186706;28;20011;-73
2022/04/28 11:45:15;;;;;;;3.35;2.63;;;;;;;;;;8183852;28;20529;-72
2022/04/28 11:49:15;;;;;;;2.58;2.10;;;;;;;;;;8182767;28;20047;-72
2022/04/28 11:53:16;;;;;;;3.33;2.30;;;;;;;;;;8178158;28;20026;-73
2022/04/28 11:57:17;;;;;;;3.85;2.80;;;;;;;;;;8182617;28;20098;-72
2022/04/28 12:01:20;;;;;;;2.47;2.27;;;;;;;;;;8180421;28;20147;-73
2022/04/28 12:05:22;;;;;;;4.30;2.70;;;;;;;;;;8178199;28;20022;-72
2022/04/28 12:22:27;;;;;;;2.78;2.28;;;;;;;;;;8176214;28;20508;-72
2022/04/28 12:26:32;;;;;;;3.10;2.00;;;;;;;;;;8178279;28;20019;-72
2022/04/28 12:30:35;;;;;;;2.00;1.90;;;;;;;;;;8179609;28;20074;-72
2022/04/28 12:34:36;;;;;;;3.53;2.78;;;;;;;;;;8181155;28;20020;-72
2022/04/28 12:38:43;;;;;;;3.67;2.25;;;;;;;;;;8181109;28;20027;-73
2022/04/28 12:42:46;;;;;;;6.15;2.50;;;;;;;;;;8179200;28;20027;-72
2022/04/28 12:46:47;;;;;;;2.60;2.20;;;;;;;;;;8185994;28;20073;-72
2022/04/28 12:50:48;;;;;;;2.85;2.45;;;;;;;;;;8196612;28;20024;-72
2022/04/28 12:54:59;;;;;;;3.92;2.40;;;;;;;;;;8178807;28;20019;-73
2022/04/28 12:59:00;;;;;;;3.35;2.50;;;;;;;;;;8179068;28;20062;-72
2022/04/28 13:03:01;;;;;;;3.25;2.42;;;;;;;;;;8173309;28;20053;-71
2022/04/28 13:07:02;;;;;;;2.58;2.38;;;;;;;;;;8173575;28;20059;-72
2022/04/28 13:11:02;;;;;;;2.67;2.13;;;;;;;;;;8185259;28;20046;-71
2022/04/28 13:15:03;;;;;;;3.47;2.22;;;;;;;;;;8183049;28;20054;-71
2022/04/28 13:19:04;;;;;;;3.20;2.90;;;;;;;;;;8189281;28;20031;-71
2022/04/28 13:23:05;;;;;;;2.50;2.30;;;;;;;;;;8181600;28;20034;-71
2022/04/28 13:27:05;;;;;;;2.70;2.25;;;;;;;;;;8177913;28;20020;-71
2022/04/28 13:31:05;;;;;;;5.57;2.57;;;;;;;;;;8177058;28;20134;-71
2022/04/28 13:35:06;;;;;;;3.17;2.63;;;;;;;;;;8186268;28;20360;-70
2022/04/28 13:39:06;;;;;;;3.40;2.50;;;;;;;;;;8182244;28;20129;-71
2022/04/28 13:43:07;;;;;;;3.95;2.80;;;;;;;;;;8184503;28;20046;-70
2022/04/28 13:47:07;;;;;;;3.10;2.43;;;;;;;;;;8184109;28;20050;-71
2022/04/28 13:51:08;;;;;;;4.40;2.30;;;;;;;;;;8174468;28;20089;-71
2022/04/28 13:55:08;;;;;;;3.78;2.25;;;;;;;;;;8173037;28;20061;-73
2022/04/28 13:59:09;;;;;;;2.58;2.38;;;;;;;;;;8185206;28;20615;-70
2022/04/28 14:03:09;;;;;;;3.20;2.00;;;;;;;;;;8179160;28;20038;-71
2022/04/28 14:07:10;;;;;;;2.42;2.20;;;;;;;;;;8187862;28;20031;-71
2022/04/28 14:11:11;;;;;;;3.17;2.08;;;;;;;;;;8183421;28;20027;-72
2022/04/28 14:15:15;;;;;;;3.65;1.92;;;;;;;;;;8185373;28;20027;-71
2022/04/28 14:19:16;;;;;;;4.00;1.90;;;;;;;;;;8176742;28;20734;-72
2022/04/28 14:23:16;;;;;;;3.08;2.25;;;;;;;;;;8180310;28;20117;-72
2022/04/28 14:27:17;;;;;;;3.28;2.25;;;;;;;;;;8178798;28;20175;-72
2022/04/28 14:31:17;;;;;;;5.93;2.92;;;;;;;;;;8196090;28;20097;-72
2022/04/28 14:35:18;;;;;;;1.90;1.80;;;;;;;;;;8185046;28;20108;-72
2022/04/28 14:39:19;;;;;;;4.20;2.00;;;;;;;;;;8180870;28;20290;-72
2022/04/28 14:43:19;;;;;;;2.65;2.30;;;;;;;;;;8176896;28;20934;-71
2022/04/28 14:47:19;;;;;;;3.40;2.45;;;;;;;;;;8178483;28;20039;-71
2022/04/28 14:55:38;;;;;;;3.33;2.03;;;;;;;;;;8186044;28;20736;-72
2022/04/28 14:59:38;;;;;;;2.95;2.10;;;;;;;;;;8185728;28;20027;-71
2022/04/28 15:03:39;;;;;;;2.83;2.00;;;;;;;;;;8185938;28;20120;-72
2022/04/28 15:07:39;;;;;;;1.92;1.70;;;;;;;;;;8188432;28;20282;-71
2022/04/28 15:11:40;;;;;;;3.00;1.98;;;;;;;;;;8189197;28;20019;-72
2022/04/28 15:15:41;;;;;;;4.15;2.20;;;;;;;;;;8194561;28;20036;-72
2022/04/28 15:19:41;;;;;;;2.47;2.10;;;;;;;;;;8197606;28;20027;-71
2022/04/28 15:23:41;;;;;;;2.17;1.98;;;;;;;;;;8188884;28;20146;-72
2022/04/28 15:27:42;;;;;;;4.35;2.30;;;;;;;;;;8202948;28;20023;-71
2022/04/28 15:31:42;;;;;;;3.83;1.83;;;;;;;;;;8185694;28;20047;-73
2022/04/28 15:35:42;;;;;;;2.90;1.90;;;;;;;;;;8180860;28;20102;-71
2022/04/28 15:39:42;;;;;;;2.70;2.15;;;;;;;;;;8194660;28;20103;-72
2022/04/28 15:43:43;;;;;;;1.77;1.50;;;;;;;;;;8194104;28;20138;-72
2022/04/28 15:47:43;;;;;;;2.10;1.90;;;;;;;;;;8180770;28;20043;-72
2022/04/28 15:51:44;;;;;;;1.92;1.73;;;;;;;;;;8188707;28;20069;-72
2022/04/28 15:55:46;;;;;;;4.43;1.92;;;;;;;;;;8194314;28;20962;-72
2022/04/28 15:59:46;;;;;;;4.03;1.90;;;;;;;;;;8186347;28;21164;-72
2022/04/28 16:03:47;;;;;;;4.25;2.17;;;;;;;;;;8182570;28;20035;-72
2022/04/28 16:07:48;;;;;;;3.15;2.08;;;;;;;;;;8186671;28;20135;-72
2022/04/28 16:11:48;;;;;;;2.15;1.80;;;;;;;;;;8185555;28;20031;-72
2022/04/28 16:15:50;;;;;;;2.80;2.10;;;;;;;;;;8174559;28;20073;-71
2022/04/28 16:19:50;;;;;;;3.83;2.00;;;;;;;;;;8164517;28;20027;-75
2022/04/28 16:23:50;;;;;;;2.42;2.22;;;;;;;;;;8188115;28;20019;-72
2022/04/28 16:27:52;;;;;;;4.68;2.35;;;;;;;;;;8190886;28;20031;-72
2022/04/28 16:31:52;;;;;;;3.42;2.00;;;;;;;;;;8188378;28;20046;-72
2022/04/28 16:35:55;;;;;;;3.22;2.00;;;;;;;;;;8188639;28;20027;-72
2022/04/28 16:39:55;;;;;;;;;;;;;;;;;;8197410;28;20082;-72
2022/04/28 16:43:55;;;;;;;2.83;2.10;;;;;;;;;;8191574;28;19942;-72
2022/04/28 16:47:56;;;;;;;2.47;2.05;;;;;;;;;;8186209;28;20428;-72
2022/04/28 16:52:01;;;;;;;3.15;2.30;;;;;;;;;;8183892;28;20718;-72
2022/04/28 16:56:01;;;;;;;4.45;2.47;;;;;;;;;;8186492;28;20555;-72
2022/04/28 17:00:03;;;;;;;3.33;2.40;;;;;;;;;;8188883;28;20038;-72
2022/04/28 17:04:17;;;;;;;2.58;2.38;;;;;;;;;;8184971;28;20662;-72
2022/04/28 17:08:17;;;;;;;3.92;2.58;;;;;;;;;;8188925;28;20027;-72
2022/04/28 17:12:19;;;;;;;8.05;2.45;;;;;;;;;;8185425;28;20055;-72
2022/04/28 17:16:19;;;;;;;6.22;2.20;;;;;;;;;;8186968;28;20564;-72
2022/04/28 17:20:19;;;;;;;3.05;2.30;;;;;;;;;;8181992;28;20026;-72
2022/04/28 17:24:21;;;;;;;2.50;2.30;;;;;;;;;;8182329;28;20023;-71
2022/04/28 17:28:21;;;;;;;3.90;2.30;;;;;;;;;;8183013;28;20090;-71
2022/04/28 17:32:21;;;;;;;3.13;2.28;;;;;;;;;;8183770;28;20126;-71
2022/04/28 17:36:22;;;;;;;4.35;2.35;;;;;;;;;;8181995;28;20030;-71
2022/04/28 17:40:22;;;;;;;3.25;2.30;;;;;;;;;;8183179;28;20023;-72
2022/04/28 17:44:22;;;;;;;2.83;2.50;;;;;;;;;;8183929;28;20070;-71
2022/04/28 17:48:33;;;;;;;2.95;2.10;;;;;;;;;;8182411;28;20035;-71
2022/04/28 17:52:34;;;;;;;4.75;2.50;;;;;;;;;;8183767;28;20054;-72
2022/04/28 18:00:54;;;;;;;4.78;2.60;;;;;;;;;;8181403;28;20270;-72
2022/04/28 18:04:55;;;;;;;3.20;2.10;;;;;;;;;;8181013;28;20797;-71
2022/04/28 18:08:55;;;;;;;2.63;2.05;;;;;;;;;;8180107;28;20519;-71
2022/04/28 18:12:56;;;;;;;2.72;1.80;;;;;;;;;;8179492;28;20031;-72
2022/04/28 18:16:57;;;;;;;2.00;1.77;;;;;;;;;;8180056;28;20133;-71
2022/04/28 18:20:57;;;;;;;3.00;1.83;;;;;;;;;;8176677;28;20182;-71
2022/04/28 18:24:57;;;;;;;1.75;1.65;;;;;;;;;;8179458;28;20027;-72
2022/04/28 18:28:59;;;;;;;2.95;2.10;;;;;;;;;;8186167;28;20625;-72
2022/04/28 18:33:02;;;;;;;1.85;1.70;;;;;;;;;;8187494;28;20304;-71
2022/04/28 18:45:40;;;;;;;2.47;1.92;;;;;;;;;;8187748;28;20046;-71
2022/04/28 18:49:42;;;;;;;2.73;1.93;;;;;;;;;;8183847;28;20023;-70
2022/04/28 18:53:43;;;;;;;2.33;2.05;;;;;;;;;;8184631;28;20061;-71
2022/04/28 18:57:43;;;;;;;2.80;2.20;;;;;;;;;;8191786;28;20297;-71
2022/04/28 19:01:49;;;;;;;2.35;1.90;;;;;;;;;;8187468;28;20031;-71
2022/04/28 19:05:49;;;;;;;2.92;2.20;;;;;;;;;;8190879;28;20027;-71
2022/04/28 19:09:50;;;;;;;4.67;2.23;;;;;;;;;;8190261;28;20533;-71
2022/04/28 19:13:54;;;;;;;4.82;2.17;;;;;;;;;;8174060;28;20764;-71
2022/04/28 19:17:55;;;;;;;4.15;2.35;;;;;;;;;;8171796;28;20523;-70
2022/04/28 19:21:55;;;;;;;4.47;2.30;;;;;;;;;;8191789;28;20028;-70
2022/04/28 19:25:57;;;;;;;3.60;2.70;;;;;;;;;;8168514;28;20023;-69
2022/04/28 19:29:57;;;;;;;2.63;2.20;;;;;;;;;;8167756;28;20035;-69
2022/04/28 19:34:01;;;;;;;2.95;1.95;;;;;;;;;;8161415;28;20151;-70
2022/04/28 19:38:02;;;;;;;3.05;2.25;;;;;;;;;;8163209;28;20027;-71
2022/04/28 19:42:03;;;;;;;2.35;2.13;;;;;;;;;;8166667;28;20034;-71
2022/04/28 19:46:04;;;;;;;3.75;2.40;;;;;;;;;;8170703;28;20035;-70
2022/04/28 19:50:05;;;;;;;4.05;2.40;;;;;;;;;;8165563;28;20145;-70
2022/04/28 19:54:06;;;;;;;2.60;2.38;;;;;;;;;;8162865;28;20027;-71
2022/04/28 19:58:06;;;;;;;3.65;2.42;;;;;;;;;;8160956;28;20039;-71
2022/04/28 20:02:06;;;;;;;3.15;2.38;;;;;;;;;;8173246;28;20102;-71
2022/04/28 20:06:06;;;;;;;5.53;2.58;;;;;;;;;;8168444;28;20023;-71
2022/04/28 20:10:11;;;;;;;2.47;2.08;;;;;;;;;;8165372;28;20031;-70
2022/04/28 20:14:12;;;;;;;3.10;2.35;;;;;;;;;;8162472;28;20031;-70
2022/04/28 20:18:13;;;;;;;2.72;2.10;;;;;;;;;;8160796;28;20525;-70
2022/04/28 20:22:13;;;;;;;2.92;2.50;;;;;;;;;;8163171;28;20113;-71
2022/04/28 20:26:17;;;;;;;3.85;2.50;;;;;;;;;;8173762;28;20023;-70
2022/04/28 20:30:19;;;;;;;3.15;2.45;;;;;;;;;;8189573;28;20965;-70
2022/04/28 20:34:20;;;;;;;2.53;2.25;;;;;;;;;;8169576;28;20026;-70
2022/04/28 20:38:21;;;;;;;2.40;2.20;;;;;;;;;;8176840;28;20023;-70
2022/04/28 20:42:21;;;;;;;3.10;2.30;;;;;;;;;;8176639;28;20023;-70
2022/04/28 20:46:21;;;;;;;3.50;2.10;;;;;;;;;;8178228;28;20547;-70
2022/04/28 20:50:21;;;;;;;2.70;2.10;;;;;;;;;;8174030;28;20477;-70
2022/04/28 20:54:22;;;;;;;3.83;2.75;;;;;;;;;;8177517;28;20113;-70
2022/04/28 20:58:22;;;;;;;2.92;2.28;;;;;;;;;;8173551;28;20142;-70
2022/04/28 21:02:23;;;;;;;3.00;2.25;;;;;;;;;;8174534;28;20046;-70
2022/04/28 21:06:23;;;;;;;3.75;2.22;;;;;;;;;;8173952;28;20063;-70
2022/04/28 21:10:24;;;;;;;3.72;2.58;;;;;;;;;;8174339;28;20131;-70
2022/04/28 21:14:25;;;;;;;2.03;1.92;;;;;;;;;;8169308;28;20422;-70
2022/04/28 21:18:25;;;;;;;3.55;2.10;;;;;;;;;;8169789;28;20074;-70
2022/04/28 21:22:25;;;;;;;2.50;2.05;;;;;;;;;;8170731;28;20019;-70
2022/04/28 21:26:26;;;;;;;3.10;2.20;;;;;;;;;;8172909;28;20027;-70
2022/04/28 21:30:28;;;;;;;2.83;1.90;;;;;;;;;;8170927;28;20094;-70
2022/04/28 21:34:28;;;;;;;6.35;2.42;;;;;;;;;;8174149;28;20038;-70
2022/04/28 21:38:29;;;;;;;2.25;2.00;;;;;;;;;;8170779;28;20114;-70
2022/04/28 21:42:29;;;;;;;3.47;2.40;;;;;;;;;;8172513;28;20755;-70
2022/04/28 21:46:30;;;;;;;2.43;2.13;;;;;;;;;;8174298;28;20035;-70
2022/04/28 21:50:30;;;;;;;5.50;2.22;;;;;;;;;;8176883;28;20339;-70
2022/04/28 21:54:30;;;;;;;4.32;2.60;;;;;;;;;;8174619;28;20439;-70
2022/04/28 21:58:31;;;;;;;4.05;2.25;;;;;;;;;;8176427;28;20122;-70
2022/04/28 22:02:32;;;;;;;3.05;2.40;;;;;;;;;;8172063;28;20706;-70
2022/04/28 22:15:11;;;;;;;2.10;2.00;;;;;;;;;;8172640;28;20750;-70
2022/04/28 22:19:13;;;;;;;6.93;2.30;;;;;;;;;;8174288;28;20031;-70
2022/04/28 22:23:13;;;;;;;2.33;2.13;;;;;;;;;;8173096;28;20058;-70
2022/04/28 22:27:13;;;;;;;2.70;2.40;;;;;;;;;;8168439;28;20678;-70
2022/04/28 22:31:13;;;;;;;2.50;2.00;;;;;;;;;;8170254;28;20040;-70
2022/04/28 22:35:16;;;;;;;2.17;2.00;;;;;;;;;;8172269;28;20062;-70
2022/04/28 22:39:16;;;;;;;2.63;2.00;;;;;;;;;;8172814;28;20027;-70
2022/04/28 22:43:17;;;;;;;2.35;1.65;;;;;;;;;;8173248;28;20524;-70
2022/04/28 22:47:20;;;;;;;5.35;2.03;;;;;;;;;;8174252;28;20035;-70
2022/04/28 22:51:20;;;;;;;2.97;2.10;;;;;;;;;;8172759;28;20042;-70
2022/04/28 22:55:21;;;;;;;3.53;2.10;;;;;;;;;;8173189;28;20480;-70
2022/04/28 22:59:21;;;;;;;2.72;2.15;;;;;;;;;;8175059;28;20027;-70
2022/04/28 23:03:21;;;;;;;2.83;2.28;;;;;;;;;;8166427;28;20113;-70
2022/04/28 23:07:21;;;;;;;4.10;2.30;;;;;;;;;;8169875;28;20941;-70
2022/04/28 23:11:21;;;;;;;2.83;2.10;;;;;;;;;;8170099;28;20024;-70
2022/04/28 23:15:22;;;;;;;3.15;2.30;;;;;;;;;;8177076;28;20035;-70
2022/04/28 23:19:22;;;;;;;3.33;2.30;;;;;;;;;;8178953;28;20722;-70
2022/04/28 23:23:22;;;;;;;3.58;2.35;;;;;;;;;;8179237;28;20027;-70
2022/04/28 23:27:22;;;;;;;3.03;2.17;;;;;;;;;;8180612;28;20118;-70
2022/04/28 23:31:26;;;;;;;2.85;2.40;;;;;;;;;;8182407;28;20129;-70
2022/04/28 23:39:45;;;;;;;3.22;2.75;;;;;;;;;;8188307;28;20422;-70
2022/04/28 23:43:46;;;;;;;3.53;3.17;;;;;;;;;;8185728;28;20134;-70
2022/04/28 23:47:46;;;;;;;5.80;3.30;;;;;;;;;;8180603;28;20039;-70
2022/04/28 23:51:46;;;;;;;3.63;2.80;;;;;;;;;;8184028;28;20030;-70
2022/04/28 23:55:46;;;;;;;4.18;3.10;;;;;;;;;;8182939;28;20027;-70
2022/04/28 23:59:46;;;;;;;5.35;2.90;;;;;;;;;;8183000;28;20030;-70
